Time;durP1;ratioP1;P1;durP2;ratioP2;P2;SDS_P1;SDS_P2;PMS_P1;PMS_P2;Temp;Humidity;BMP_temperature;BMP_pressure;BME280_temperature;BME280_humidity;BME280_pressure;Samples;Min_cycle;Max_cycle;Signal;HPM_P1;HPM_P2
2023/05/06 00:01:30;;;;;;;6.00;3.13;;;;;;;12.96;95.83;95704.19;6163416;23;20155;-83
2023/05/06 00:03:55;;;;;;;3.13;2.70;;;;;;;12.99;95.34;95702.13;6138145;23;20493;-84
2023/05/06 00:06:21;;;;;;;2.83;2.57;;;;;;;12.95;94.93;95694.75;6160704;23;20600;-85
2023/05/06 00:08:46;;;;;;;3.40;2.97;;;;;;;12.87;95.93;95697.34;6167619;23;20178;-85
2023/05/06 00:11:12;;;;;;;5.40;2.70;;;;;;;12.91;95.27;95698.66;6162437;23;20146;-84
2023/05/06 00:13:41;;;;;;;4.40;3.07;;;;;;;12.74;96.76;95685.56;6163951;23;20182;-85
2023/05/06 00:16:06;;;;;;;3.50;3.07;;;;;;;12.85;96.55;95688.84;6137366;23;20166;-84
2023/05/06 00:18:31;;;;;;;6.03;3.60;;;;;;;12.84;96.88;95690.66;6138214;23;20185;-84
2023/05/06 00:20:57;;;;;;;5.83;4.00;;;;;;;12.79;97.33;95681.66;6138289;23;20159;-85
2023/05/06 00:23:22;;;;;;;5.93;4.10;;;;;;;12.80;98.44;95685.91;6137111;23;20225;-85
2023/05/06 00:25:47;;;;;;;6.20;4.60;;;;;;;12.82;98.54;95687.41;6136486;23;20158;-85
2023/05/06 00:28:13;;;;;;;4.60;4.20;;;;;;;12.81;98.78;95684.91;6161050;23;20232;-85
2023/05/06 00:30:38;;;;;;;5.70;4.30;;;;;;;12.82;99.22;95683.97;6160084;23;20198;-85
2023/05/06 00:33:03;;;;;;;6.40;4.50;;;;;;;12.93;98.24;95681.06;6187470;23;20162;-85
2023/05/06 00:35:29;;;;;;;7.23;5.23;;;;;;;12.95;99.00;95679.94;6160491;23;20175;-85
2023/05/06 00:38:07;;;;;;;6.03;5.43;;;;;;;12.92;99.65;95672.44;6159723;23;20225;-85
2023/05/06 00:40:32;;;;;;;7.13;5.80;;;;;;;12.95;99.52;95677.31;6160189;23;20200;-85
2023/05/06 00:42:57;;;;;;;7.80;5.70;;;;;;;12.85;99.42;95675.84;6135802;23;20644;-84
2023/05/06 00:45:24;;;;;;;6.50;5.87;;;;;;;12.89;99.04;95674.53;6159791;23;20161;-85
2023/05/06 00:47:50;;;;;;;8.27;6.10;;;;;;;12.86;99.30;95669.63;6134382;23;20241;-85
2023/05/06 00:50:15;;;;;;;8.93;6.63;;;;;;;12.77;100.00;95661.78;6134788;23;20181;-86
2023/05/06 00:52:40;;;;;;;8.00;6.63;;;;;;;12.75;100.00;95663.75;6135384;23;20162;-85
2023/05/06 00:55:06;;;;;;;8.23;6.10;;;;;;;12.75;99.86;95666.34;6159132;23;20156;-85
2023/05/06 00:57:31;;;;;;;9.57;6.93;;;;;;;12.68;100.00;95667.94;6159147;23;20185;-86
2023/05/06 00:59:57;;;;;;;7.40;6.53;;;;;;;12.64;100.00;95671.84;6186029;23;20174;-85
2023/05/06 01:02:22;;;;;;;9.57;7.50;;;;;;;12.68;100.00;95667.94;6134840;23;20209;-84
2023/05/06 01:04:47;;;;;;;8.80;7.10;;;;;;;12.64;100.00;95669.25;6135204;23;20159;-85
2023/05/06 01:07:41;;;;;;;11.57;7.37;;;;;;;12.75;100.00;95670.75;6184263;23;20488;-85
2023/05/06 01:10:18;;;;;;;8.43;7.30;;;;;;;12.79;100.00;95669.44;6158911;23;20170;-85
2023/05/06 01:13:03;;;;;;;9.13;7.60;;;;;;;12.75;100.00;95668.97;6158618;23;20249;-86
2023/05/06 01:15:34;;;;;;;7.67;6.97;;;;;;;12.76;100.00;95665.38;6160680;23;20143;-85
2023/05/06 01:18:01;;;;;;;10.83;9.13;;;;;;;12.74;100.00;95671.72;6159697;23;20178;-85
2023/05/06 01:20:26;;;;;;;9.63;8.63;;;;;;;12.75;100.00;95668.97;6159437;23;20170;-85
2023/05/06 01:22:52;;;;;;;12.23;9.07;;;;;;;12.84;100.00;95674.19;6184146;23;20209;-85
2023/05/06 01:25:19;;;;;;;11.53;10.47;;;;;;;12.85;100.00;95673.22;6134822;23;20165;-84
2023/05/06 01:27:45;;;;;;;10.23;9.33;;;;;;;12.88;100.00;95683.31;6133776;23;20212;-85
2023/05/06 01:30:11;;;;;;;11.20;9.97;;;;;;;12.90;100.00;95671.78;6134656;23;20271;-85
2023/05/06 01:32:46;;;;;;;10.77;9.73;;;;;;;12.94;100.00;95670.47;6133855;23;20194;-85
2023/05/06 01:35:20;;;;;;;10.73;9.67;;;;;;;12.97;100.00;95679.75;6158525;23;20648;-85
2023/05/06 01:38:18;;;;;;;11.00;10.00;;;;;;;12.96;100.00;95681.56;6158118;23;20631;-84
2023/05/06 01:40:46;;;;;;;13.70;10.17;;;;;;;12.86;100.00;95680.88;6158331;23;20174;-84
2023/05/06 01:43:13;;;;;;;11.33;10.23;;;;;;;12.82;100.00;95683.97;6133527;23;20237;-84
2023/05/06 01:45:39;;;;;;;12.00;10.80;;;;;;;12.84;100.00;95680.22;6133143;23;20154;-84
2023/05/06 01:48:05;;;;;;;13.70;10.67;;;;;;;12.79;100.00;95674.66;6132685;23;20601;-85
2023/05/06 01:50:31;;;;;;;11.83;10.70;;;;;;;12.68;100.00;95665.34;6133375;23;20588;-85
2023/05/06 01:53:01;;;;;;;12.67;10.47;;;;;;;12.71;100.00;95667.63;6158289;23;20182;-84
2023/05/06 01:55:26;;;;;;;13.70;11.90;;;;;;;12.59;100.00;95670.69;6132937;23;20155;-84
2023/05/06 01:57:55;;;;;;;12.33;10.93;;;;;;;12.62;100.00;95679.00;6132289;23;20193;-85
2023/05/06 02:00:23;;;;;;;11.80;10.37;;;;;;;12.54;100.00;95671.13;6158110;23;20174;-84
2023/05/06 02:02:49;;;;;;;12.43;9.97;;;;;;;12.54;100.00;95680.75;6157682;23;20159;-84
2023/05/06 02:05:14;;;;;;;11.13;10.13;;;;;;;12.39;100.00;95670.13;6133198;23;20588;-85
2023/05/06 02:07:40;;;;;;;11.93;10.10;;;;;;;12.41;100.00;95673.38;6131196;23;20813;-85
2023/05/06 02:10:05;;;;;;;13.63;9.77;;;;;;;12.39;100.00;95670.13;6132623;23;20174;-84
2023/05/06 02:12:31;;;;;;;9.40;8.50;;;;;;;12.30;100.00;95664.06;6132962;23;20170;-85
2023/05/06 02:14:56;;;;;;;9.53;8.50;;;;;;;12.47;100.00;95668.38;6157663;23;20182;-85
2023/05/06 02:17:21;;;;;;;9.63;8.37;;;;;;;12.51;100.00;95679.28;6131757;23;20182;-84
2023/05/06 02:19:46;;;;;;;10.97;8.73;;;;;;;12.48;100.00;95679.59;6182479;23;20205;-85
2023/05/06 02:22:12;;;;;;;11.80;9.47;;;;;;;12.50;100.00;95680.25;6132499;23;20166;-85
2023/05/06 02:24:37;;;;;;;12.17;10.30;;;;;;;12.42;100.00;95672.41;6132636;23;20484;-84
2023/05/06 02:27:03;;;;;;;11.33;9.43;;;;;;;12.40;100.00;95674.34;6131946;23;20169;-85
2023/05/06 02:29:28;;;;;;;15.17;9.73;;;;;;;12.52;100.00;95669.69;6133342;23;20179;-85
2023/05/06 02:31:53;;;;;;;11.90;9.73;;;;;;;12.46;100.00;95665.94;6133026;23;20159;-86
2023/05/06 02:34:19;;;;;;;11.53;10.03;;;;;;;12.43;100.00;95663.63;6159669;23;20163;-85
2023/05/06 02:36:44;;;;;;;10.30;9.30;;;;;;;12.44;100.00;95662.63;6132580;23;20552;-85
2023/05/06 02:39:09;;;;;;;12.13;10.07;;;;;;;12.41;100.00;95665.56;6158079;23;20632;-85
2023/05/06 02:41:34;;;;;;;11.17;10.07;;;;;;;12.40;100.00;95666.53;6133438;23;20163;-85
2023/05/06 02:44:00;;;;;;;10.03;9.00;;;;;;;12.33;100.00;95668.13;6182826;23;20159;-85
2023/05/06 02:46:25;;;;;;;11.40;9.63;;;;;;;12.28;100.00;95667.75;6132482;23;20162;-84
2023/05/06 02:48:50;;;;;;;10.70;9.60;;;;;;;12.21;100.00;95667.59;6158247;23;20181;-85
2023/05/06 02:51:16;;;;;;;10.93;9.90;;;;;;;12.14;100.00;95662.16;6157944;23;20532;-86
2023/05/06 02:53:41;;;;;;;12.13;10.13;;;;;;;12.09;100.00;95661.00;6133390;23;20511;-85
2023/05/06 02:56:06;;;;;;;11.47;10.03;;;;;;;12.00;100.00;95651.50;6156754;23;20158;-86
2023/05/06 02:58:32;;;;;;;13.53;10.70;;;;;;;12.02;100.00;95662.59;6157771;23;20249;-84
2023/05/06 03:00:57;;;;;;;10.23;9.10;;;;;;;12.01;100.00;95653.13;6158280;23;20166;-85
2023/05/06 03:03:22;;;;;;;10.67;9.50;;;;;;;11.94;100.00;95658.16;6134330;23;20384;-86
2023/05/06 03:05:47;;;;;;;10.23;9.07;;;;;;;11.89;100.00;95655.19;6131793;23;20623;-85
2023/05/06 03:08:13;;;;;;;8.93;8.03;;;;;;;11.88;100.00;95659.56;6157655;23;20601;-86
2023/05/06 03:10:38;;;;;;;9.77;8.33;;;;;;;11.83;100.00;95664.41;6133583;23;20182;-87
2023/05/06 03:13:03;;;;;;;10.07;8.10;;;;;;;11.83;100.00;95655.78;6133180;23;20166;-85
2023/05/06 03:15:29;;;;;;;10.33;7.97;;;;;;;11.75;100.00;95656.53;6157691;23;20158;-84
2023/05/06 03:17:54;;;;;;;10.20;7.30;;;;;;;11.72;100.00;95653.41;6156673;23;20170;-84
2023/05/06 03:20:20;;;;;;;8.40;6.33;;;;;;;11.69;100.00;95659.75;6133082;23;20247;-84
2023/05/06 03:22:45;;;;;;;7.63;6.33;;;;;;;11.70;100.00;95656.16;6157431;23;20624;-86
2023/05/06 03:25:10;;;;;;;6.90;6.20;;;;;;;11.70;100.00;95648.38;6157690;23;20163;-85
2023/05/06 03:27:35;;;;;;;6.80;5.30;;;;;;;11.69;100.00;95648.53;6131977;23;20162;-85
2023/05/06 03:30:01;;;;;;;8.97;6.00;;;;;;;11.68;100.00;95654.69;6133169;23;20178;-84
2023/05/06 03:32:27;;;;;;;6.60;5.97;;;;;;;11.63;100.00;95648.16;6157360;23;20154;-85
2023/05/06 03:34:52;;;;;;;6.60;5.83;;;;;;;11.61;100.00;95639.69;6132793;23;20174;-85
2023/05/06 03:37:17;;;;;;;6.60;5.67;;;;;;;11.59;100.00;95649.44;6156612;23;20162;-85
2023/05/06 03:39:43;;;;;;;5.90;4.93;;;;;;;11.56;100.00;95639.31;6132791;23;20628;-84
2023/05/06 03:42:08;;;;;;;6.20;5.60;;;;;;;11.54;100.00;95645.63;6132849;23;20229;-84
2023/05/06 03:44:33;;;;;;;6.23;5.17;;;;;;;11.53;100.00;95644.00;6156951;23;20552;-84
2023/05/06 03:46:59;;;;;;;5.80;5.20;;;;;;;11.51;100.00;95641.56;6131403;23;20632;-85
2023/05/06 03:49:24;;;;;;;6.17;5.57;;;;;;;11.47;100.00;95640.22;6131888;23;20628;-86
2023/05/06 03:51:50;;;;;;;7.00;5.93;;;;;;;11.46;100.00;95641.19;6132618;23;20194;-84
2023/05/06 03:54:15;;;;;;;6.97;6.00;;;;;;;11.42;100.00;95637.25;6156898;23;20151;-85
2023/05/06 03:56:40;;;;;;;6.53;5.63;;;;;;;11.44;100.00;95634.50;6156358;23;20157;-86
2023/05/06 03:59:05;;;;;;;6.93;5.53;;;;;;;11.43;100.00;95638.91;6156566;23;20190;-86
2023/05/06 04:01:31;;;;;;;5.37;4.87;;;;;;;11.45;100.00;95636.94;6131996;23;20163;-85
2023/05/06 04:03:56;;;;;;;7.33;4.80;;;;;;;11.43;100.00;95641.50;6132154;23;20468;-84
2023/05/06 04:06:21;;;;;;;6.37;4.93;;;;;;;11.51;100.00;95646.75;6130482;23;20211;-85
2023/05/06 04:08:47;;;;;;;5.53;4.63;;;;;;;11.52;99.64;95643.19;6131902;23;20516;-85
2023/05/06 04:11:12;;;;;;;5.67;4.43;;;;;;;11.61;99.51;95647.47;6132769;23;20158;-85
2023/05/06 04:13:37;;;;;;;4.90;3.63;;;;;;;11.64;98.90;95639.38;6156521;23;20487;-84
2023/05/06 04:16:04;;;;;;;5.37;3.87;;;;;;;11.73;98.32;95637.66;6131293;23;20177;-85
2023/05/06 04:18:29;;;;;;;4.40;3.60;;;;;;;11.76;97.19;95634.75;6157501;23;20258;-85
2023/05/06 04:20:54;;;;;;;4.57;3.73;;;;;;;11.83;96.76;95641.00;6134250;23;20179;-86
2023/05/06 04:23:20;;;;;;;4.10;3.23;;;;;;;11.91;96.09;95643.66;6158383;23;20166;-86
2023/05/06 04:25:49;;;;;;;5.17;3.90;;;;;;;11.99;95.46;95640.28;6131999;23;20159;-84
2023/05/06 04:28:18;;;;;;;5.67;3.27;;;;;;;12.08;94.34;95639.34;6157280;23;20151;-86
2023/05/06 04:30:44;;;;;;;5.43;3.53;;;;;;;12.19;93.93;95640.88;6132682;23;20267;-85
2023/05/06 04:33:09;;;;;;;3.67;3.10;;;;;;;12.32;92.84;95645.66;6156936;23;20158;-85
2023/05/06 04:35:35;;;;;;;5.83;3.10;;;;;;;12.38;92.15;95642.44;6156361;23;20556;-85
2023/05/06 04:38:01;;;;;;;4.67;3.10;;;;;;;12.50;91.66;95654.22;6155714;23;20181;-85
2023/05/06 04:40:27;;;;;;;3.83;2.77;;;;;;;12.60;90.82;95648.88;6182296;23;20174;-86
2023/05/06 04:42:52;;;;;;;4.30;3.30;;;;;;;12.67;89.93;95650.69;6156602;23;20167;-85
2023/05/06 04:45:18;;;;;;;5.30;3.60;;;;;;;12.85;88.90;95657.59;6156362;23;20895;-85
2023/05/06 04:47:43;;;;;;;4.27;3.07;;;;;;;12.97;88.12;95658.91;6131873;23;20159;-86
2023/05/06 04:50:09;;;;;;;2.70;2.47;;;;;;;13.35;87.83;95662.78;6158201;23;20598;-85
2023/05/06 04:52:35;;;;;;;3.07;2.23;;;;;;;14.57;80.14;95667.84;6133769;23;20469;-85
2023/05/06 04:55:01;;;;;;;3.77;1.90;;;;;;;16.29;72.54;95673.53;6157871;23;20168;-85
2023/05/06 04:57:26;;;;;;;2.30;1.85;;;;;;;17.22;66.92;95678.16;6132096;23;20185;-86
2023/05/06 04:59:51;;;;;;;3.50;1.50;;;;;;;17.41;64.51;95673.34;6133191;23;20249;-85
2023/05/06 05:02:19;;;;;;;1.60;1.50;;;;;;;17.64;63.40;95681.00;6158196;23;20139;-86
2023/05/06 05:04:44;;;;;;;1.45;1.30;;;;;;;17.96;61.19;95679.72;6133657;23;20185;-86
2023/05/06 05:07:13;;;;;;;1.95;1.55;;;;;;;18.51;60.01;95692.03;6131338;23;20162;-86
2023/05/06 05:09:38;;;;;;;3.90;1.30;;;;;;;18.85;57.66;95695.69;6133542;23;20170;-86
2023/05/06 05:12:04;;;;;;;3.15;1.30;;;;;;;18.26;60.49;95691.66;6132917;23;20673;-86
2023/05/06 05:14:29;;;;;;;2.72;1.27;;;;;;;17.58;62.92;95687.00;6133196;23;20628;-86
2023/05/06 05:16:55;;;;;;;2.35;1.38;;;;;;;17.49;63.99;95694.19;6157062;23;20154;-86
2023/05/06 05:19:20;;;;;;;1.90;1.55;;;;;;;17.24;64.40;95696.38;6157729;23;20194;-86
2023/05/06 05:21:46;;;;;;;1.67;1.30;;;;;;;17.55;62.75;95693.44;6157818;23;20159;-86
2023/05/06 05:24:11;;;;;;;1.75;1.50;;;;;;;17.27;64.05;95691.56;6133038;23;20162;-85
2023/05/06 05:26:36;;;;;;;1.80;1.50;;;;;;;16.51;69.37;95691.97;6158617;23;20488;-86
2023/05/06 05:29:02;;;;;;;2.42;1.67;;;;;;;16.42;68.63;95691.25;6133028;23;20228;-85
2023/05/06 05:31:28;;;;;;;3.72;2.40;;;;;;;15.46;73.77;95697.97;6157507;23;20605;-85
2023/05/06 05:33:53;;;;;;;3.58;2.25;;;;;;;15.26;74.96;95694.16;6133234;23;20158;-85
2023/05/06 05:36:18;;;;;;;2.63;2.10;;;;;;;15.01;76.88;95696.06;6156923;23;20194;-86
2023/05/06 05:38:44;;;;;;;2.80;2.50;;;;;;;15.12;77.33;95694.91;6157635;23;20616;-86
2023/05/06 05:41:09;;;;;;;2.63;2.25;;;;;;;15.26;77.19;95691.53;6133019;23;20220;-85
2023/05/06 05:43:34;;;;;;;2.40;2.20;;;;;;;15.72;76.49;95694.19;6157398;23;20186;-85
2023/05/06 05:46:00;;;;;;;3.78;2.30;;;;;;;16.09;73.00;95701.25;6132005;23;20521;-86
2023/05/06 05:48:25;;;;;;;2.55;2.05;;;;;;;15.97;73.42;95700.84;6132689;23;20593;-86
2023/05/06 05:50:50;;;;;;;2.55;2.00;;;;;;;17.30;70.39;95705.31;6132714;23;20593;-86
2023/05/06 05:53:16;;;;;;;3.15;2.03;;;;;;;17.51;66.29;95710.59;6184335;23;20158;-85
2023/05/06 05:55:41;;;;;;;2.83;2.00;;;;;;;18.11;64.17;95698.84;6157305;23;20163;-85
2023/05/06 05:58:09;;;;;;;3.78;2.15;;;;;;;18.71;62.21;95710.59;6127793;23;20185;-85
2023/05/06 06:00:35;;;;;;;2.20;2.00;;;;;;;18.72;63.25;95706.94;6154558;23;20507;-85
2023/05/06 06:03:00;;;;;;;2.20;2.00;;;;;;;19.91;57.99;95701.28;6130799;23;20224;-85
2023/05/06 06:05:26;;;;;;;3.95;2.10;;;;;;;19.00;60.05;95708.72;6131913;23;20185;-85
2023/05/06 06:07:54;;;;;;;2.05;1.85;;;;;;;19.08;59.13;95701.47;6131626;23;20470;-84
2023/05/06 06:10:19;;;;;;;1.88;1.70;;;;;;;18.95;59.96;95709.28;6132913;23;20186;-85
2023/05/06 06:12:45;;;;;;;2.88;1.90;;;;;;;20.25;54.29;95705.56;6131166;23;20154;-84
2023/05/06 06:15:10;;;;;;;4.07;1.48;;;;;;;20.41;54.11;95707.78;6156098;23;20481;-84
2023/05/06 06:17:35;;;;;;;1.67;1.58;;;;;;;20.55;52.42;95716.50;6131366;23;20183;-84
2023/05/06 06:20:01;;;;;;;2.15;1.60;;;;;;;21.12;51.98;95721.03;6131344;23;20182;-84
2023/05/06 06:22:26;;;;;;;5.35;1.90;;;;;;;21.40;49.80;95715.47;6179597;23;20166;-84
2023/05/06 06:24:52;;;;;;;2.60;1.58;;;;;;;20.63;51.19;95717.09;6131380;23;20162;-84
2023/05/06 06:27:18;;;;;;;2.53;1.40;;;;;;;20.96;51.25;95723.31;6155600;23;20155;-85
2023/05/06 06:29:43;;;;;;;1.77;1.50;;;;;;;20.83;51.36;95726.78;6156570;23;21025;-84
2023/05/06 06:32:08;;;;;;;3.30;1.75;;;;;;;21.52;48.90;95728.81;6154812;23;20154;-83
2023/05/06 06:34:34;;;;;;;2.15;1.10;;;;;;;21.65;47.77;95720.81;6156134;23;20185;-81
2023/05/06 06:36:59;;;;;;;1.30;1.20;;;;;;;21.57;47.97;95728.19;6131287;23;20158;-85
2023/05/06 06:39:24;;;;;;;3.10;1.20;;;;;;;21.10;50.06;95733.63;6157297;23;20193;-86
2023/05/06 06:41:50;;;;;;;2.38;1.23;;;;;;;21.38;49.74;95730.72;6180767;23;20213;-85
2023/05/06 06:44:15;;;;;;;1.88;1.30;;;;;;;22.06;47.78;95724.81;6156221;23;20174;-85
2023/05/06 06:46:41;;;;;;;3.40;1.55;;;;;;;23.35;44.25;95739.91;6155111;23;20154;-84
2023/05/06 06:49:07;;;;;;;2.38;1.27;;;;;;;24.11;43.13;95729.72;6155369;23;20166;-84
2023/05/06 06:51:32;;;;;;;3.67;1.20;;;;;;;24.06;43.28;95737.56;6131157;23;20147;-86
2023/05/06 06:53:57;;;;;;;1.27;1.17;;;;;;;23.57;42.73;95742.88;6154715;23;20189;-85
2023/05/06 06:56:23;;;;;;;2.28;1.30;;;;;;;23.46;42.02;95738.34;6130392;23;20190;-85
2023/05/06 06:58:48;;;;;;;3.22;1.33;;;;;;;23.39;43.67;95749.00;6130466;23;20193;-85
2023/05/06 07:01:13;;;;;;;1.92;1.10;;;;;;;23.52;42.38;95744.59;6156268;23;20166;-86
2023/05/06 07:03:38;;;;;;;2.20;1.08;;;;;;;24.42;40.34;95747.22;6130873;23;20158;-86
2023/05/06 07:06:04;;;;;;;4.50;0.90;;;;;;;24.53;39.13;95751.72;6155011;23;20158;-85
2023/05/06 07:08:29;;;;;;;3.45;1.38;;;;;;;23.25;41.86;95750.22;6130950;23;20250;-85
2023/05/06 07:10:55;;;;;;;1.42;0.80;;;;;;;23.34;41.59;95756.84;6155274;23;20485;-86
2023/05/06 07:13:22;;;;;;;2.15;1.60;;;;;;;24.55;38.29;95753.09;6156194;23;20522;-86
2023/05/06 07:15:47;;;;;;;1.23;1.10;;;;;;;22.28;43.28;95752.56;6155708;23;20166;-86
2023/05/06 07:18:13;;;;;;;4.10;1.48;;;;;;;22.13;44.56;95752.03;6155243;23;20205;-85
2023/05/06 07:20:38;;;;;;;1.98;1.77;;;;;;;22.07;44.54;95755.53;6131478;23;20565;-86
2023/05/06 07:23:04;;;;;;;2.25;1.30;;;;;;;22.05;45.76;95750.44;6131634;23;20163;-85
2023/05/06 07:25:30;;;;;;;4.13;1.80;;;;;;;20.08;48.66;95744.69;6131929;23;20155;-87
2023/05/06 07:27:57;;;;;;;1.95;1.08;;;;;;;20.40;47.93;95743.06;6155102;23;20154;-81
2023/05/06 07:30:32;;;;;;;2.35;1.10;;;;;;;20.17;50.58;95750.56;6181783;23;20174;-81
2023/05/06 07:33:09;;;;;;;1.58;0.98;;;;;;;21.32;45.70;95743.94;6151089;23;20157;-82
2023/05/06 07:35:46;;;;;;;2.78;1.23;;;;;;;21.63;44.87;95745.81;6131415;23;20178;-84
2023/05/06 07:38:11;;;;;;;1.05;0.90;;;;;;;20.02;49.25;95746.28;6156843;23;20179;-84
2023/05/06 07:40:36;;;;;;;1.98;1.23;;;;;;;20.64;46.88;95745.09;6184285;23;20197;-79
2023/05/06 07:43:02;;;;;;;1.58;1.27;;;;;;;18.88;51.77;95761.06;6157152;23;20238;-79
2023/05/06 07:57:06;;;;;;;1.42;1.10;;;;;;;17.81;60.60;95762.03;6173933;23;20261;-81
2023/05/06 07:59:32;;;;;;;1.50;1.40;;;;;;;17.61;60.63;95762.81;6186967;23;20648;-83
2023/05/06 08:01:57;;;;;;;2.75;1.45;;;;;;;17.92;60.75;95767.78;6194293;23;20154;-81
2023/05/06 08:04:22;;;;;;;1.55;1.20;;;;;;;17.93;58.66;95764.16;6216961;23;20312;-84
2023/05/06 08:06:48;;;;;;;2.60;1.40;;;;;;;18.05;58.93;95758.22;6211716;23;20154;-86
2023/05/06 08:09:13;;;;;;;1.08;0.90;;;;;;;18.59;54.94;95767.34;6187114;23;20182;-84
2023/05/06 08:11:38;;;;;;;2.28;1.10;;;;;;;18.63;55.27;95758.03;6214054;23;20157;-83
2023/05/06 08:14:11;;;;;;;1.85;1.35;;;;;;;18.77;56.76;95767.69;6213681;23;20154;-81
2023/05/06 08:16:37;;;;;;;2.25;1.10;;;;;;;18.94;56.44;95765.56;6184259;23;20169;-81
2023/05/06 08:19:10;;;;;;;1.67;1.58;;;;;;;18.67;58.49;95768.03;6183477;23;20585;-83
2023/05/06 08:21:38;;;;;;;1.30;1.20;;;;;;;18.53;59.65;95768.09;6182869;23;20154;-84
2023/05/06 08:24:03;;;;;;;1.13;1.02;;;;;;;18.62;55.36;95764.31;6161109;23;20188;-82
2023/05/06 08:26:28;;;;;;;2.90;1.42;;;;;;;18.20;57.29;95767.81;6212535;23;20232;-83
2023/05/06 08:28:56;;;;;;;1.90;0.95;;;;;;;18.34;53.81;95767.75;6214308;23;20174;-82
2023/05/06 08:31:21;;;;;;;1.27;0.93;;;;;;;18.99;55.16;95770.22;6162725;23;20240;-83
2023/05/06 08:33:46;;;;;;;2.88;1.50;;;;;;;18.10;55.35;95761.06;6216007;23;20177;-84
2023/05/06 08:36:14;;;;;;;1.83;1.42;;;;;;;19.10;56.77;95772.34;6188413;23;20196;-84
2023/05/06 08:38:49;;;;;;;3.63;1.38;;;;;;;18.90;56.54;95770.38;6188113;23;20174;-83
2023/05/06 08:41:20;;;;;;;1.85;1.60;;;;;;;19.33;55.55;95778.09;6194102;23;20546;-82
2023/05/06 08:43:46;;;;;;;2.53;1.10;;;;;;;19.31;53.92;95768.78;6194388;23;20164;-81
2023/05/06 08:46:21;;;;;;;1.17;1.10;;;;;;;19.64;54.05;95767.13;6192090;23;20173;-83
2023/05/06 08:48:56;;;;;;;1.38;0.90;;;;;;;18.35;52.54;95774.63;6164841;23;20256;-83
2023/05/06 08:51:35;;;;;;;1.80;0.93;;;;;;;18.84;50.47;95771.19;6192307;23;20149;-84
2023/05/06 08:54:03;;;;;;;2.17;1.10;;;;;;;18.66;54.38;95766.41;6192770;23;20168;-79
2023/05/06 08:56:31;;;;;;;1.20;1.00;;;;;;;18.81;49.27;95771.53;6186142;23;20171;-78
2023/05/06 08:59:38;;;;;;;1.70;0.88;;;;;;;18.46;52.30;95775.13;6186512;23;20178;-83
2023/05/06 09:02:06;;;;;;;2.28;0.90;;;;;;;19.41;51.32;95774.50;6211256;23;20158;-83
2023/05/06 09:04:36;;;;;;;1.83;0.95;;;;;;;19.76;50.91;95770.78;6160530;23;20163;-84
2023/05/06 09:07:03;;;;;;;1.10;1.00;;;;;;;20.33;47.57;95769.44;6184674;23;20166;-83
2023/05/06 09:09:42;;;;;;;1.45;0.95;;;;;;;20.80;45.97;95764.16;6159475;23;20178;-83
2023/05/06 09:12:15;;;;;;;2.28;1.02;;;;;;;21.27;44.89;95764.88;6162443;23;20146;-83
2023/05/06 09:14:41;;;;;;;1.45;0.90;;;;;;;21.12;44.69;95768.56;6160296;23;20158;-83
2023/05/06 09:17:36;;;;;;;3.45;0.95;;;;;;;21.11;44.50;95766.91;6184860;23;20158;-84
2023/05/06 09:20:08;;;;;;;1.38;0.90;;;;;;;20.77;47.35;95775.16;6188282;23;20245;-84
2023/05/06 09:22:40;;;;;;;3.08;1.10;;;;;;;20.99;45.67;95767.78;6165211;23;20163;-86
2023/05/06 09:25:11;;;;;;;0.88;0.88;;;;;;;21.02;46.67;95770.81;6189922;23;20213;-82
2023/05/06 09:27:45;;;;;;;3.22;1.80;;;;;;;20.36;48.18;95758.50;6185113;23;20663;-83
2023/05/06 09:30:43;;;;;;;1.27;1.00;;;;;;;19.55;49.78;95770.09;6162483;23;20700;-82
2023/05/06 09:33:40;;;;;;;1.52;0.98;;;;;;;19.26;48.97;95764.13;6103317;23;20160;-84
2023/05/06 09:36:26;;;;;;;1.38;1.00;;;;;;;19.84;49.25;95764.53;6038600;23;20807;-84
2023/05/06 09:39:10;;;;;;;1.15;0.90;;;;;;;20.78;47.34;95756.47;6011561;23;20241;-83
2023/05/06 09:41:56;;;;;;;3.22;1.00;;;;;;;20.90;49.13;95757.44;6016760;23;20195;-86
2023/05/06 09:44:59;;;;;;;1.38;1.20;;;;;;;20.76;47.11;95758.50;6015426;23;20170;-84
2023/05/06 09:47:35;;;;;;;1.98;0.98;;;;;;;20.63;46.21;95746.13;6036629;23;20224;-82
2023/05/06 09:50:12;;;;;;;3.63;1.40;;;;;;;20.60;47.23;95746.53;6037014;23;20441;-84
2023/05/06 09:52:46;;;;;;;2.40;1.00;;;;;;;20.47;46.83;95743.91;6038605;23;20161;-85
2023/05/06 09:55:25;;;;;;;1.60;1.00;;;;;;;20.20;48.20;95739.63;6016620;23;20212;-84
2023/05/06 09:58:19;;;;;;;;;;;;;;;;;;;;;
2023/05/06 10:01:19;;;;;;;1.42;0.95;;;;;;;20.23;46.91;95740.03;6014711;23;20252;-81
2023/05/06 10:04:25;;;;;;;;;;;;;;;;;;;;;
2023/05/06 10:07:27;;;;;;;2.80;1.20;;;;;;;19.26;48.95;95737.78;6045694;23;20220;-82
2023/05/06 10:10:07;;;;;;;;;;;;;;;;;;;;;
2023/05/06 10:13:15;;;;;;;2.53;1.00;;;;;;;19.32;49.43;95731.72;6162725;23;20893;-83
2023/05/06 10:16:24;;;;;;;1.25;0.95;;;;;;;19.34;47.86;95732.31;6062166;23;20157;-86
2023/05/06 10:19:18;;;;;;;2.33;1.13;;;;;;;19.89;47.60;95732.31;5980727;24;20199;-84
2023/05/06 10:22:20;;;;;;;;;;;;;;;;;;;;;
2023/05/06 10:25:44;;;;;;;1.05;0.90;;;;;;;20.78;44.40;95723.97;5979594;24;20250;-84
2023/05/06 10:28:48;;;;;;;2.67;1.15;;;;;;;21.23;44.28;95724.03;5980345;24;20178;-85
2023/05/06 10:31:31;;;;;;;3.75;1.02;;;;;;;20.51;45.19;95731.13;5980921;24;20173;-84
2023/05/06 10:34:32;;;;;;;1.13;0.90;;;;;;;20.13;44.87;95715.06;5960757;24;20246;-85
2023/05/06 10:37:24;;;;;;;1.30;0.80;;;;;;;20.82;43.95;95722.53;5949219;24;20360;-83
2023/05/06 10:40:13;;;;;;;2.15;0.90;;;;;;;21.07;43.83;95715.56;5950589;24;20267;-83
2023/05/06 10:43:21;;;;;;;2.15;1.23;;;;;;;20.69;45.04;95704.09;5911863;24;20164;-84
2023/05/06 10:46:36;;;;;;;2.40;1.02;;;;;;;20.15;45.59;95699.88;5953175;24;20205;-84
2023/05/06 10:53:22;;;;;;;1.85;1.35;;;;;;;19.02;49.86;95699.63;5853798;24;20176;-84
2023/05/06 10:56:11;;;;;;;1.15;1.02;;;;;;;18.93;49.85;95698.97;5820766;24;20178;-83
2023/05/06 11:02:52;;;;;;;1.63;1.30;;;;;;;19.05;51.04;95687.88;5840611;24;20180;-84
2023/05/06 11:05:52;;;;;;;4.22;1.80;;;;;;;19.28;50.41;95684.94;5897711;24;20161;-83
2023/05/06 11:12:39;;;;;;;2.35;1.30;;;;;;;18.94;52.04;95689.25;5878753;24;20171;-84
2023/05/06 11:15:50;;;;;;;;;;;;;;;;;;;;;
2023/05/06 11:19:15;;;;;;;1.45;1.33;;;;;;;19.26;51.00;95682.50;5895988;24;20273;-84
2023/05/06 11:22:52;;;;;;;2.67;1.27;;;;;;;19.27;49.82;95681.50;5878499;24;20188;-84
2023/05/06 11:26:06;;;;;;;1.77;1.20;;;;;;;19.82;49.45;95671.69;5875253;24;20235;-85
2023/05/06 11:29:18;;;;;;;1.98;1.10;;;;;;;20.51;48.33;95671.25;5883549;24;20192;-84
2023/05/06 12:49:19;;;;;;;3.67;1.65;;;;;;;21.31;45.03;95665.72;6133335;23;20202;-84
2023/05/06 14:08:02;;;;;;;9.68;6.53;;;;;;;20.90;44.48;95604.34;5926777;24;20195;-84
2023/05/06 14:10:27;;;;;;;3.63;1.90;;;;;;;21.42;43.30;95599.00;5904370;24;20189;-83
2023/05/06 16:15:28;;;;;;;3.90;2.72;;;;;;;21.70;41.39;95565.03;6125754;23;20202;-79
2023/05/06 16:17:56;;;;;;;3.67;2.67;;;;;;;21.44;42.43;95562.63;6161336;23;20640;-81
2023/05/06 16:20:21;;;;;;;9.55;5.13;;;;;;;21.59;41.46;95568.41;6212496;23;20166;-81
2023/05/06 16:23:05;;;;;;;3.58;1.70;;;;;;;21.57;41.74;95559.88;6214686;23;20158;-82
2023/05/06 17:03:56;;;;;;;2.67;1.50;;;;;;;20.13;46.39;95541.88;6154105;23;20212;-83
2023/05/06 17:06:26;;;;;;;3.97;2.58;;;;;;;20.19;45.35;95540.25;6153193;23;20166;-82
2023/05/06 17:08:51;;;;;;;5.45;2.60;;;;;;;20.17;46.04;95540.47;6182401;23;20551;-82
2023/05/06 17:11:17;;;;;;;3.35;1.48;;;;;;;20.17;45.51;95535.19;6215041;23;20158;-83
2023/05/06 17:13:42;;;;;;;3.78;3.47;;;;;;;20.03;45.80;95547.59;6215166;23;20204;-83
2023/05/06 17:16:07;;;;;;;3.17;1.73;;;;;;;19.89;45.45;95540.75;6187976;23;20193;-82
2023/05/06 17:18:33;;;;;;;4.45;2.70;;;;;;;19.98;45.49;95538.69;6187498;23;20186;-84
2023/05/06 17:20:58;;;;;;;2.45;1.80;;;;;;;19.94;45.99;95532.19;6215024;23;20619;-82
2023/05/06 17:23:24;;;;;;;2.40;1.40;;;;;;;19.72;45.81;95534.28;6213302;23;20158;-84
2023/05/06 17:25:49;;;;;;;2.90;1.50;;;;;;;19.50;46.20;95528.38;6164236;23;20666;-83
2023/05/06 17:28:15;;;;;;;1.75;1.20;;;;;;;19.65;45.48;95523.75;6214115;23;20200;-83
2023/05/06 17:30:40;;;;;;;1.92;1.30;;;;;;;19.65;45.63;95523.75;6188273;23;20181;-82
2023/05/06 17:33:06;;;;;;;2.22;1.10;;;;;;;19.77;45.66;95530.00;6214721;23;20676;-83